createdAt,value
2022-10-18T00:02:24.738Z,1014.46
2022-10-18T00:05:24.666Z,1014.55
2022-10-18T00:08:24.674Z,1014.47
2022-10-18T00:11:24.670Z,1014.43
2022-10-18T00:14:24.670Z,1014.42
2022-10-18T00:17:24.666Z,1014.39
2022-10-18T00:20:24.676Z,1014.31
2022-10-18T00:23:24.671Z,1014.34
2022-10-18T00:26:24.672Z,1014.35
2022-10-18T00:29:24.672Z,1014.36
2022-10-18T00:32:24.673Z,1014.36
2022-10-18T00:35:24.672Z,1014.38
2022-10-18T00:38:24.674Z,1014.31
2022-10-18T00:41:24.673Z,1014.29
2022-10-18T00:44:24.680Z,1014.32
2022-10-18T00:47:24.679Z,1014.29
2022-10-18T00:50:24.676Z,1014.31
2022-10-18T00:53:24.682Z,1014.28
2022-10-18T00:56:24.677Z,1014.21
2022-10-18T00:59:24.678Z,1014.19
2022-10-18T01:02:24.679Z,1014.15
2022-10-18T01:05:24.671Z,1014.16
2022-10-18T01:08:24.684Z,1014.17
2022-10-18T01:11:24.684Z,1014.15
2022-10-18T01:14:24.678Z,1014.1
2022-10-18T01:17:24.684Z,1014.08
2022-10-18T01:20:24.684Z,1014.05
2022-10-18T01:23:24.684Z,1014.1
2022-10-18T01:26:24.682Z,1014.07
2022-10-18T01:29:24.689Z,1014.1
2022-10-18T01:32:24.681Z,1014.11
2022-10-18T01:35:24.685Z,1014.11
2022-10-18T01:38:24.686Z,1014.09
2022-10-18T01:41:24.683Z,1014.15
2022-10-18T01:44:24.688Z,1014.12
2022-10-18T01:47:24.696Z,1014.08
2022-10-18T01:50:24.682Z,1014.03
2022-10-18T01:53:24.681Z,1013.99
2022-10-18T01:56:24.687Z,1014.01
2022-10-18T01:59:24.686Z,1013.99
2022-10-18T02:02:24.686Z,1013.93
2022-10-18T02:05:24.700Z,1013.95
2022-10-18T02:08:24.689Z,1013.89
2022-10-18T02:11:24.697Z,1013.84
2022-10-18T02:14:24.685Z,1013.83
2022-10-18T02:17:24.692Z,1013.82
2022-10-18T02:20:24.712Z,1013.8
2022-10-18T02:23:24.696Z,1013.8
2022-10-18T02:26:24.702Z,1013.84
2022-10-18T02:29:24.694Z,1013.82
2022-10-18T02:32:24.694Z,1013.78
2022-10-18T02:35:24.697Z,1013.74
2022-10-18T02:38:24.696Z,1013.7
2022-10-18T02:41:24.700Z,1013.66
2022-10-18T02:44:24.708Z,1013.61
2022-10-18T02:47:24.699Z,1013.67
2022-10-18T02:50:24.700Z,1013.71
2022-10-18T02:53:24.702Z,1013.76
2022-10-18T02:56:24.701Z,1013.69
2022-10-18T02:59:24.706Z,1013.75
2022-10-18T03:02:24.705Z,1013.73
2022-10-18T03:05:24.699Z,1013.69
2022-10-18T03:08:24.698Z,1013.65
2022-10-18T03:11:24.699Z,1013.69
2022-10-18T03:14:24.712Z,1013.76
2022-10-18T03:17:24.732Z,1013.81
2022-10-18T03:20:24.703Z,1014.01
2022-10-18T03:23:24.703Z,1014.08
2022-10-18T03:26:24.716Z,1014.14
2022-10-18T03:29:24.705Z,1014.24
2022-10-18T03:32:24.705Z,1014.35
2022-10-18T03:35:24.702Z,1014.7
2022-10-18T03:38:24.702Z,1014.58
2022-10-18T03:41:24.780Z,1014.54
2022-10-18T03:44:24.725Z,1014.41
2022-10-18T03:47:24.733Z,1014.42
2022-10-18T03:50:24.719Z,1014.4
2022-10-18T03:53:24.726Z,1014.39
2022-10-18T03:56:24.719Z,1014.37
2022-10-18T03:59:24.726Z,1014.32
2022-10-18T04:02:24.731Z,1014.29
2022-10-18T04:05:24.726Z,1014.36
2022-10-18T04:08:24.729Z,1014.31
2022-10-18T04:11:24.728Z,1014.26
2022-10-18T04:14:24.725Z,1014.11
2022-10-18T04:17:24.724Z,1013.97
2022-10-18T04:20:24.746Z,1013.94
2022-10-18T04:23:24.733Z,1014
2022-10-18T04:26:24.735Z,1014.08
2022-10-18T04:29:24.744Z,1014.18
2022-10-18T04:32:24.727Z,1014.51
2022-10-18T04:35:24.731Z,1014.8
2022-10-18T04:38:24.733Z,1014.59
2022-10-18T04:41:24.743Z,1014.44
2022-10-18T04:44:24.752Z,1014.66
2022-10-18T04:47:24.746Z,1014.64
2022-10-18T04:50:24.738Z,1014.6
2022-10-18T04:53:24.735Z,1014.65
2022-10-18T04:56:24.736Z,1014.54
2022-10-18T04:59:24.736Z,1014.55
2022-10-18T05:02:24.734Z,1014.44
2022-10-18T05:05:27.008Z,1014.53
2022-10-18T05:08:24.744Z,1014.54
2022-10-18T05:11:24.739Z,1014.44
2022-10-18T05:14:24.736Z,1014.44
2022-10-18T05:17:24.743Z,1014.44
2022-10-18T05:20:24.738Z,1014.43
2022-10-18T05:23:24.757Z,1014.37
2022-10-18T05:26:24.754Z,1014.35
2022-10-18T05:29:25.027Z,1014.32
2022-10-18T05:32:24.776Z,1014.31
2022-10-18T05:35:24.781Z,1014.25
2022-10-18T05:38:25.470Z,1014.16
2022-10-18T05:41:25.346Z,1014.1
2022-10-18T05:44:25.355Z,1014.05
2022-10-18T05:47:25.407Z,1014.05
2022-10-18T05:50:25.372Z,1014.05
2022-10-18T05:53:36.081Z,1014.03
2022-10-18T05:56:25.378Z,1013.99
2022-10-18T05:59:25.361Z,1013.93
2022-10-18T06:02:25.395Z,1013.95
2022-10-18T06:05:25.364Z,1013.91
2022-10-18T06:08:25.356Z,1014
2022-10-18T06:11:25.348Z,1014.26
2022-10-18T06:14:25.341Z,1014.75
2022-10-18T06:17:25.962Z,1014.79
2022-10-18T06:20:25.455Z,1014.62
2022-10-18T06:23:25.348Z,1014.66
2022-10-18T06:26:25.360Z,1014.64
2022-10-18T06:29:25.357Z,1014.44
2022-10-18T06:32:25.376Z,1014.51
2022-10-18T06:35:25.378Z,1014.46
2022-10-18T06:38:25.367Z,1014.43
2022-10-18T06:41:25.367Z,1014.37
2022-10-18T06:44:25.362Z,1014.4
2022-10-18T06:47:25.360Z,1014.61
2022-10-18T06:50:25.363Z,1014.65
2022-10-18T06:53:25.385Z,1014.67
2022-10-18T06:56:25.359Z,1014.65
2022-10-18T06:59:27.485Z,1014.84
2022-10-18T07:02:25.363Z,1014.98
2022-10-18T07:05:25.436Z,1015.1
2022-10-18T07:08:25.364Z,1015.15
2022-10-18T07:11:25.386Z,1015.15
2022-10-18T07:14:28.848Z,1015.08
2022-10-18T07:17:25.364Z,1015.03
2022-10-18T07:20:25.361Z,1014.9
2022-10-18T07:23:25.361Z,1014.81
2022-10-18T07:26:25.373Z,1014.82
2022-10-18T07:29:25.361Z,1014.94
2022-10-18T07:32:25.365Z,1014.93
2022-10-18T07:35:25.371Z,1015.09
2022-10-18T07:38:25.369Z,1015.13
2022-10-18T07:41:25.367Z,1015.16
2022-10-18T07:44:25.374Z,1015.16
2022-10-18T07:47:25.359Z,1015.21
2022-10-18T07:50:25.366Z,1015.23
2022-10-18T07:53:25.367Z,1015.26
2022-10-18T07:56:25.371Z,1015.25
2022-10-18T07:59:25.379Z,1015.24
2022-10-18T08:02:25.377Z,1015.2
2022-10-18T08:05:25.421Z,1015.18
2022-10-18T08:08:25.381Z,1015.18
2022-10-18T08:11:25.387Z,1015.17
2022-10-18T08:14:25.384Z,1015.21
2022-10-18T08:17:25.388Z,1015.23
2022-10-18T08:20:30.698Z,1015.26
2022-10-18T08:23:25.384Z,1015.32
2022-10-18T08:26:25.383Z,1015.28
2022-10-18T08:29:28.061Z,1015.34
2022-10-18T08:32:25.382Z,1015.38
2022-10-18T08:35:25.383Z,1015.42
2022-10-18T08:38:25.387Z,1015.45
2022-10-18T08:41:25.377Z,1015.47
2022-10-18T08:44:25.389Z,1015.5
2022-10-18T08:47:25.382Z,1015.52
2022-10-18T08:50:25.390Z,1015.56
2022-10-18T08:53:25.384Z,1015.57
2022-10-18T08:56:25.389Z,1015.57
2022-10-18T08:59:25.588Z,1015.5
2022-10-18T09:02:25.388Z,1015.55
2022-10-18T09:05:25.387Z,1015.55
2022-10-18T09:08:25.384Z,1015.56
2022-10-18T09:11:25.472Z,1015.59
2022-10-18T09:14:25.386Z,1015.62
2022-10-18T09:17:25.388Z,1015.63
2022-10-18T09:20:25.401Z,1015.62
2022-10-18T09:23:25.407Z,1015.68
2022-10-18T09:26:25.387Z,1015.65
2022-10-18T09:29:25.421Z,1015.69
2022-10-18T09:32:25.385Z,1015.68
2022-10-18T09:35:25.389Z,1015.73
2022-10-18T09:41:25.384Z,1015.78
2022-10-18T09:44:25.389Z,1015.8
2022-10-18T09:47:25.481Z,1015.77
2022-10-18T09:50:25.390Z,1015.74
2022-10-18T09:53:25.393Z,1015.77
2022-10-18T09:56:25.425Z,1015.71
2022-10-18T09:59:25.404Z,1015.74
2022-10-18T10:02:25.442Z,1015.68
2022-10-18T10:05:25.385Z,1015.69
2022-10-18T10:08:25.383Z,1015.71
2022-10-18T10:11:25.387Z,1015.75
2022-10-18T10:14:25.386Z,1015.82
2022-10-18T10:17:25.393Z,1015.82
2022-10-18T10:20:25.388Z,1015.86
2022-10-18T10:23:25.389Z,1015.93
2022-10-18T10:26:25.385Z,1015.99
2022-10-18T10:29:40.559Z,1016.02
2022-10-18T10:32:25.389Z,1016.03
2022-10-18T10:35:35.424Z,1015.99
2022-10-18T10:38:25.417Z,1015.95
2022-10-18T10:41:25.447Z,1015.96
2022-10-18T10:44:25.401Z,1015.95
2022-10-18T10:47:25.401Z,1015.97
2022-10-18T10:50:25.452Z,1016.01
2022-10-18T10:53:25.396Z,1016
2022-10-18T10:56:25.408Z,1016
2022-10-18T10:59:25.411Z,1016.03
2022-10-18T11:02:25.422Z,1016.13
2022-10-18T11:05:25.423Z,1016.06
2022-10-18T11:08:25.457Z,1016.05
2022-10-18T11:11:25.421Z,1016.06
2022-10-18T11:14:26.410Z,1016.07
2022-10-18T11:17:25.425Z,1016
2022-10-18T11:20:25.428Z,1015.99
2022-10-18T11:23:25.420Z,1015.97
2022-10-18T11:26:25.424Z,1015.98
2022-10-18T11:29:25.415Z,1015.95
2022-10-18T11:32:25.428Z,1015.98
2022-10-18T11:35:25.424Z,1016.01
2022-10-18T11:38:25.431Z,1016.02
2022-10-18T11:41:25.428Z,1016.04
2022-10-18T11:44:25.426Z,1016.04
2022-10-18T11:47:25.435Z,1016.02
2022-10-18T11:50:25.427Z,1016.02
2022-10-18T11:53:25.422Z,1016.02
2022-10-18T11:56:25.426Z,1016.01
2022-10-18T11:59:25.420Z,1015.97
2022-10-18T12:02:25.464Z,1015.97
2022-10-18T12:05:25.428Z,1015.94
2022-10-18T12:08:25.416Z,1015.94
2022-10-18T12:11:25.421Z,1015.93
2022-10-18T12:14:25.423Z,1015.88
2022-10-18T12:17:42.022Z,1015.85
2022-10-18T12:20:25.427Z,1015.82
2022-10-18T12:23:25.423Z,1015.81
2022-10-18T12:26:25.420Z,1015.82
2022-10-18T12:29:25.426Z,1015.78
2022-10-18T12:32:25.419Z,1015.76
2022-10-18T12:35:25.424Z,1015.75
2022-10-18T12:38:25.427Z,1015.74
2022-10-18T12:41:25.439Z,1015.71
2022-10-18T12:44:25.432Z,1015.72
2022-10-18T12:47:25.428Z,1015.72
2022-10-18T12:50:25.426Z,1015.69
2022-10-18T12:53:25.433Z,1015.69
2022-10-18T12:56:25.421Z,1015.67
2022-10-18T12:59:25.438Z,1015.73
2022-10-18T13:02:25.427Z,1015.68
2022-10-18T13:05:33.574Z,1015.67
2022-10-18T13:08:25.429Z,1015.67
2022-10-18T13:11:25.425Z,1015.7
2022-10-18T13:14:25.440Z,1015.67
2022-10-18T13:17:25.431Z,1015.71
2022-10-18T13:20:26.970Z,1015.76
2022-10-18T13:23:25.450Z,1015.75
2022-10-18T13:26:25.430Z,1015.77
2022-10-18T13:29:25.515Z,1015.71
2022-10-18T13:32:25.431Z,1015.67
2022-10-18T13:35:25.438Z,1015.65
2022-10-18T13:38:25.433Z,1015.63
2022-10-18T13:41:25.446Z,1015.65
2022-10-18T13:44:25.439Z,1015.65
2022-10-18T13:47:25.425Z,1015.73
2022-10-18T13:50:25.491Z,1015.69
2022-10-18T13:53:25.428Z,1015.73
2022-10-18T13:56:25.432Z,1015.74
2022-10-18T13:59:25.600Z,1015.77
2022-10-18T14:02:36.671Z,1015.79
2022-10-18T14:05:25.844Z,1015.76
2022-10-18T14:08:25.463Z,1015.78
2022-10-18T14:11:25.443Z,1015.77
2022-10-18T14:14:25.439Z,1015.74
2022-10-18T14:17:25.521Z,1015.71
2022-10-18T14:20:27.165Z,1015.78
2022-10-18T14:23:25.438Z,1015.73
2022-10-18T14:26:25.460Z,1015.77
2022-10-18T14:29:25.508Z,1015.77
2022-10-18T14:32:25.435Z,1015.75
2022-10-18T14:35:32.343Z,1015.74
2022-10-18T14:38:25.448Z,1015.73
2022-10-18T14:41:25.433Z,1015.77
2022-10-18T14:44:25.433Z,1015.82
2022-10-18T14:47:25.438Z,1015.88
2022-10-18T14:50:28.025Z,1015.9
2022-10-18T14:53:25.452Z,1015.92
2022-10-18T14:56:25.438Z,1015.96
2022-10-18T14:59:25.464Z,1015.94
2022-10-18T15:02:25.461Z,1015.89
2022-10-18T15:05:25.450Z,1015.9
2022-10-18T15:08:25.455Z,1015.91
2022-10-18T15:11:25.445Z,1015.89
2022-10-18T15:14:25.463Z,1015.93
2022-10-18T15:17:25.479Z,1015.93
2022-10-18T15:20:25.463Z,1015.95
2022-10-18T15:23:25.472Z,1015.99
2022-10-18T15:26:25.462Z,1016.02
2022-10-18T15:29:25.461Z,1016
2022-10-18T15:32:25.461Z,1015.99
2022-10-18T15:35:26.465Z,1016.02
2022-10-18T15:38:25.475Z,1015.99
2022-10-18T15:41:25.462Z,1015.96
2022-10-18T15:44:25.481Z,1015.92
2022-10-18T15:47:25.463Z,1015.94
2022-10-18T15:50:25.459Z,1015.97
2022-10-18T15:53:25.466Z,1016.02
2022-10-18T15:56:25.457Z,1016.06
2022-10-18T15:59:25.471Z,1016.04
2022-10-18T16:02:25.470Z,1015.98
2022-10-18T16:05:25.462Z,1015.99
2022-10-18T16:08:25.479Z,1016.05
2022-10-18T16:11:25.464Z,1015.97
2022-10-18T16:14:25.489Z,1015.94
2022-10-18T16:17:25.467Z,1015.89
2022-10-18T16:20:25.472Z,1015.92
2022-10-18T16:23:25.481Z,1015.88
2022-10-18T16:26:25.465Z,1015.92
2022-10-18T16:29:25.497Z,1015.97
2022-10-18T16:32:25.483Z,1015.99
2022-10-18T16:35:25.479Z,1016.01
2022-10-18T16:38:25.469Z,1016.02
2022-10-18T16:41:25.476Z,1016.07
2022-10-18T16:44:25.476Z,1016.07
2022-10-18T16:47:25.473Z,1016.13
2022-10-18T16:50:25.476Z,1016.16
2022-10-18T16:53:25.483Z,1016.19
2022-10-18T16:56:25.490Z,1016.23
2022-10-18T16:59:25.487Z,1016.25
2022-10-18T17:02:25.470Z,1016.28
2022-10-18T17:05:25.479Z,1016.32
2022-10-18T17:08:25.484Z,1016.37
2022-10-18T17:11:25.471Z,1016.38
2022-10-18T17:14:25.480Z,1016.47
2022-10-18T17:17:25.465Z,1016.52
2022-10-18T17:20:25.479Z,1016.54
2022-10-18T17:23:25.472Z,1016.54
2022-10-18T17:26:28.699Z,1016.55
2022-10-18T17:29:25.476Z,1016.57
2022-10-18T17:32:25.465Z,1016.59
2022-10-18T17:35:25.470Z,1016.61
2022-10-18T17:38:25.476Z,1016.63
2022-10-18T17:41:25.484Z,1016.67
2022-10-18T17:44:25.469Z,1016.7
2022-10-18T17:47:25.474Z,1016.69
2022-10-18T17:50:25.469Z,1016.68
2022-10-18T17:53:25.512Z,1016.65
2022-10-18T17:56:25.472Z,1016.66
2022-10-18T17:59:25.482Z,1016.68
2022-10-18T18:02:25.471Z,1016.68
2022-10-18T18:05:25.473Z,1016.65
2022-10-18T18:08:25.494Z,1016.66
2022-10-18T18:11:25.489Z,1016.67
2022-10-18T18:14:25.472Z,1016.71
2022-10-18T18:17:28.839Z,1016.75
2022-10-18T18:20:25.483Z,1016.71
2022-10-18T18:23:25.479Z,1016.74
2022-10-18T18:26:25.477Z,1016.72
2022-10-18T18:29:25.476Z,1016.73
2022-10-18T18:32:25.474Z,1016.69
2022-10-18T18:35:25.479Z,1016.66
2022-10-18T18:38:25.473Z,1016.71
2022-10-18T18:41:25.478Z,1016.69
2022-10-18T18:44:25.470Z,1016.61
2022-10-18T18:47:25.479Z,1016.66
2022-10-18T18:50:25.475Z,1016.69
2022-10-18T18:53:27.182Z,1016.7
2022-10-18T18:56:25.469Z,1016.72
2022-10-18T18:59:25.476Z,1016.73
2022-10-18T19:02:25.484Z,1016.74
2022-10-18T19:05:25.552Z,1016.76
2022-10-18T19:08:25.472Z,1016.76
2022-10-18T19:11:25.487Z,1016.69
2022-10-18T19:14:25.802Z,1016.73
2022-10-18T19:17:25.493Z,1016.79
2022-10-18T19:20:25.488Z,1016.85
2022-10-18T19:26:25.498Z,1016.82
2022-10-18T19:29:25.477Z,1016.79
2022-10-18T19:32:25.524Z,1016.78
2022-10-18T19:35:25.482Z,1016.78
2022-10-18T19:38:25.512Z,1016.84
2022-10-18T19:44:25.522Z,1016.8
2022-10-18T19:47:25.483Z,1016.75
2022-10-18T19:53:25.480Z,1016.7
2022-10-18T19:56:25.481Z,1016.71
2022-10-18T19:59:25.573Z,1016.75
2022-10-18T20:02:25.475Z,1016.73
2022-10-18T20:05:25.492Z,1016.75
2022-10-18T20:08:25.490Z,1016.78
2022-10-18T20:11:25.494Z,1016.8
2022-10-18T20:14:25.506Z,1016.81
2022-10-18T20:17:25.493Z,1016.81
2022-10-18T20:20:25.480Z,1016.85
2022-10-18T20:23:25.549Z,1016.86
2022-10-18T20:26:25.612Z,1016.83
2022-10-18T20:29:25.530Z,1016.89
2022-10-18T20:32:25.493Z,1016.89
2022-10-18T20:35:25.634Z,1016.82
2022-10-18T20:38:25.625Z,1016.85
2022-10-18T20:41:25.621Z,1016.83
2022-10-18T20:44:25.616Z,1016.85
2022-10-18T20:47:25.620Z,1016.85
2022-10-18T20:50:25.619Z,1016.81
2022-10-18T20:53:25.614Z,1016.72
2022-10-18T20:56:25.624Z,1016.75
2022-10-18T20:59:25.613Z,1016.71
2022-10-18T21:02:25.627Z,1016.75
2022-10-18T21:05:25.626Z,1016.76
2022-10-18T21:08:25.620Z,1016.77
2022-10-18T21:11:25.624Z,1016.8
2022-10-18T21:14:25.621Z,1016.82
2022-10-18T21:17:25.631Z,1016.84
2022-10-18T21:20:25.633Z,1016.89
2022-10-18T21:23:25.617Z,1016.8
2022-10-18T21:26:25.630Z,1016.79
2022-10-18T21:29:25.669Z,1016.8
2022-10-18T21:32:25.634Z,1016.82
2022-10-18T21:35:25.632Z,1016.78
2022-10-18T21:38:25.618Z,1016.76
2022-10-18T21:41:25.656Z,1016.75
2022-10-18T21:44:25.623Z,1016.73
2022-10-18T21:47:25.681Z,1016.7
2022-10-18T21:50:25.628Z,1016.67
2022-10-18T21:53:25.625Z,1016.72
2022-10-18T21:56:25.632Z,1016.67
2022-10-18T21:59:25.626Z,1016.68
2022-10-18T22:02:25.626Z,1016.69
2022-10-18T22:05:25.627Z,1016.68
2022-10-18T22:08:25.624Z,1016.63
2022-10-18T22:11:25.691Z,1016.67
2022-10-18T22:14:25.634Z,1016.67
2022-10-18T22:17:25.622Z,1016.63
2022-10-18T22:20:25.634Z,1016.66
2022-10-18T22:23:25.622Z,1016.65
2022-10-18T22:26:25.624Z,1016.63
2022-10-18T22:29:25.623Z,1016.64
2022-10-18T22:32:25.626Z,1016.66
2022-10-18T22:35:25.636Z,1016.65
2022-10-18T22:38:25.641Z,1016.65
2022-10-18T22:41:25.633Z,1016.65
2022-10-18T22:44:25.636Z,1016.61
2022-10-18T22:47:25.621Z,1016.56
2022-10-18T22:50:25.631Z,1016.58
2022-10-18T22:53:25.625Z,1016.56
2022-10-18T22:56:25.638Z,1016.56
2022-10-18T22:59:25.636Z,1016.5
2022-10-18T23:02:25.633Z,1016.54
2022-10-18T23:05:25.634Z,1016.55
2022-10-18T23:08:25.633Z,1016.51
2022-10-18T23:11:25.635Z,1016.52
2022-10-18T23:14:25.644Z,1016.51
2022-10-18T23:17:25.658Z,1016.6
2022-10-18T23:20:25.653Z,1016.66
2022-10-18T23:23:25.653Z,1016.64
2022-10-18T23:26:25.657Z,1016.6
2022-10-18T23:29:25.658Z,1016.58
2022-10-18T23:32:25.668Z,1016.6
2022-10-18T23:35:25.658Z,1016.63
2022-10-18T23:38:25.677Z,1016.63
2022-10-18T23:41:25.659Z,1016.65
2022-10-18T23:44:25.662Z,1016.66
2022-10-18T23:47:25.674Z,1016.66
2022-10-18T23:50:25.662Z,1016.68
2022-10-18T23:53:25.661Z,1016.76
2022-10-18T23:56:25.670Z,1016.73
2022-10-18T23:59:25.663Z,1016.76
